Sao Sebastiao, Brazil
Current Conditions -  °F | °C
As of 8:00 PM on Tuesday 25 Nov 2014 (Local Time) from SBMO Reporting Station
Few Clouds Few Clouds  
Wind Chill: 77°   Ceiling: Unl
Heat Index: 78°   Visibility: 6mi
Dew Point: 73°   Wind: 7mph
Humidity: 89%   Direction: 100°E
Pressure: 29.94"   Gusts: NA
Location:  9.93°S, 36.55°W
Report Text: SBMO 252300Z 10006KT 9999 FEW020 25/23 Q1014
Loading
Personal Weather Stations






























Interactive Weather Map New forecast layout! Learn more

10-Day Weather Forecast

Advertisements
Track Severe Weather on mobile